createdAt,value
2022-12-23T00:01:38.797Z,80.00
2022-12-23T00:04:07.957Z,79.50
2022-12-23T00:06:36.975Z,79.60
2022-12-23T00:09:06.004Z,79.60
2022-12-23T00:11:34.956Z,79.40
2022-12-23T00:14:22.406Z,79.60
2022-12-23T00:16:52.519Z,79.10
2022-12-23T00:19:21.590Z,79.30
2022-12-23T00:21:50.576Z,79.40
2022-12-23T00:24:19.534Z,79.10
2022-12-23T00:26:48.741Z,79.50
2022-12-23T00:29:17.643Z,79.20
2022-12-23T00:31:46.683Z,78.90
2022-12-23T00:34:18.983Z,79.00
2022-12-23T00:36:47.935Z,78.60
2022-12-23T00:39:35.331Z,78.70
2022-12-23T00:42:22.686Z,78.60
2022-12-23T00:44:51.731Z,78.50
2022-12-23T00:47:55.774Z,78.30
2022-12-23T00:50:24.784Z,78.00
2022-12-23T00:52:53.766Z,77.90
2022-12-23T00:55:23.075Z,77.60
2022-12-23T00:57:52.149Z,77.00
2022-12-23T01:00:21.601Z,76.90
2022-12-23T01:03:08.632Z,76.70
2022-12-23T01:05:38.255Z,76.40
2022-12-23T01:08:09.357Z,76.00
2022-12-23T01:10:39.753Z,76.10
2022-12-23T01:13:09.186Z,76.10
2022-12-23T01:15:38.129Z,75.90
2022-12-23T01:18:07.181Z,75.50
2022-12-23T01:20:36.168Z,75.50
2022-12-23T01:23:05.128Z,75.40
2022-12-23T01:25:34.832Z,75.20
2022-12-23T01:28:05.025Z,74.90
2022-12-23T01:30:33.992Z,74.80
2022-12-23T01:33:02.904Z,74.50
2022-12-23T01:35:31.871Z,74.10
2022-12-23T01:38:03.403Z,73.80
2022-12-23T01:40:41.059Z,73.40
2022-12-23T01:43:18.988Z,72.80
2022-12-23T01:45:48.634Z,72.80
2022-12-23T01:48:21.070Z,72.40
2022-12-23T01:50:57.262Z,72.00
2022-12-23T01:53:36.087Z,71.70
2022-12-23T01:56:37.023Z,70.60
2022-12-23T01:59:38.567Z,71.20
2022-12-23T02:02:25.867Z,71.20
2022-12-23T02:04:56.106Z,70.60
2022-12-23T02:07:43.018Z,70.80
2022-12-23T02:10:13.939Z,70.20
2022-12-23T02:13:07.081Z,69.20
2022-12-23T02:16:02.945Z,69.00
2022-12-23T02:18:44.363Z,69.80
2022-12-23T02:21:26.504Z,69.10
2022-12-23T02:23:55.628Z,68.60
2022-12-23T02:26:58.290Z,67.80
2022-12-23T02:30:03.045Z,67.30
2022-12-23T02:32:38.351Z,68.00
2022-12-23T02:35:24.283Z,68.40
2022-12-23T02:38:26.444Z,68.00
2022-12-23T02:41:03.097Z,68.10
2022-12-23T02:43:45.269Z,66.90
2022-12-23T02:46:32.790Z,67.60
2022-12-23T02:49:16.153Z,68.10
2022-12-23T02:51:52.873Z,66.50
2022-12-23T02:54:45.653Z,65.90
2022-12-23T02:57:18.850Z,65.70
2022-12-23T02:59:51.028Z,66.20
2022-12-23T03:02:21.381Z,66.00
2022-12-23T03:05:03.327Z,65.90
2022-12-23T03:07:43.605Z,65.70
2022-12-23T03:10:28.498Z,65.20
2022-12-23T03:13:19.705Z,63.90
2022-12-23T03:16:24.399Z,64.00
2022-12-23T03:19:26.639Z,64.30
2022-12-23T03:22:09.949Z,64.50
2022-12-23T03:24:49.307Z,65.00
2022-12-23T03:27:42.736Z,64.70
2022-12-23T03:30:22.478Z,63.00
2022-12-23T03:33:16.878Z,63.10
2022-12-23T03:35:53.374Z,62.90
2022-12-23T03:38:24.730Z,63.80
2022-12-23T03:41:02.126Z,63.40
2022-12-23T03:43:50.694Z,63.10
2022-12-23T03:46:42.786Z,63.00
2022-12-23T03:49:18.671Z,64.00
2022-12-23T03:51:57.661Z,62.30
2022-12-23T03:54:34.061Z,63.90
2022-12-23T03:57:06.323Z,62.50
2022-12-23T03:59:40.542Z,60.90
2022-12-23T04:02:57.721Z,61.60
2022-12-23T04:05:35.398Z,61.30
2022-12-23T04:08:09.245Z,61.30
2022-12-23T04:10:38.688Z,60.80
2022-12-23T04:13:08.039Z,62.10
2022-12-23T04:15:42.580Z,61.50
2022-12-23T04:18:12.815Z,59.20
2022-12-23T04:20:41.920Z,61.30
2022-12-23T04:23:10.959Z,61.10
2022-12-23T04:25:39.949Z,62.10
2022-12-23T04:28:08.932Z,62.40
2022-12-23T04:30:39.989Z,62.30
2022-12-23T04:33:09.089Z,61.70
2022-12-23T04:35:38.060Z,60.80
2022-12-23T04:38:09.100Z,60.50
2022-12-23T04:40:38.247Z,60.50
2022-12-23T04:43:07.276Z,59.90
2022-12-23T04:45:36.306Z,59.90
2022-12-23T04:48:05.376Z,59.60
2022-12-23T04:50:34.677Z,58.00
2022-12-23T04:53:08.024Z,58.50
2022-12-23T04:55:47.067Z,60.10
2022-12-23T04:58:16.236Z,59.50
2022-12-23T05:00:45.242Z,59.40
2022-12-23T05:03:14.328Z,59.20
2022-12-23T05:05:46.497Z,59.30
2022-12-23T05:08:16.013Z,59.60
2022-12-23T05:10:47.111Z,58.90
2022-12-23T05:13:16.171Z,59.70
2022-12-23T05:16:02.987Z,59.50
2022-12-23T05:18:32.697Z,58.00
2022-12-23T05:21:01.658Z,59.30
2022-12-23T05:23:30.705Z,59.40
2022-12-23T05:25:59.762Z,59.20
2022-12-23T05:28:28.935Z,59.00
2022-12-23T05:31:02.685Z,59.10
2022-12-23T05:33:35.365Z,59.40
2022-12-23T05:36:04.963Z,57.70
2022-12-23T05:38:33.916Z,57.90
2022-12-23T05:41:03.471Z,58.40
2022-12-23T05:43:32.772Z,58.90
2022-12-23T05:46:01.929Z,58.00
2022-12-23T05:48:30.962Z,58.40
2022-12-23T05:51:00.006Z,58.50
2022-12-23T05:53:29.089Z,58.10
2022-12-23T05:56:05.096Z,58.00
2022-12-23T05:58:37.555Z,58.40
2022-12-23T06:01:06.772Z,58.20
2022-12-23T06:03:35.893Z,57.20
2022-12-23T06:06:05.295Z,57.50
2022-12-23T06:08:34.239Z,56.90
2022-12-23T06:11:06.948Z,57.00
2022-12-23T06:13:35.912Z,56.90
2022-12-23T06:16:05.010Z,56.20
2022-12-23T06:18:33.994Z,54.70
2022-12-23T06:21:02.930Z,56.50
2022-12-23T06:23:31.880Z,56.90
2022-12-23T06:26:02.559Z,57.30
2022-12-23T06:28:31.894Z,56.90
2022-12-23T06:31:01.058Z,53.40
2022-12-23T06:33:30.236Z,54.60
2022-12-23T06:35:59.324Z,54.60
2022-12-23T06:38:28.401Z,54.70
2022-12-23T06:40:57.465Z,55.90
2022-12-23T06:43:26.443Z,55.60
2022-12-23T06:45:55.642Z,56.20
2022-12-23T06:48:24.654Z,55.70
2022-12-23T06:50:53.875Z,55.50
2022-12-23T06:53:23.031Z,55.70
2022-12-23T06:55:52.015Z,55.70
2022-12-23T06:58:20.973Z,55.40
2022-12-23T07:00:49.955Z,55.10
2022-12-23T07:03:19.093Z,54.70
2022-12-23T07:05:54.435Z,54.50
2022-12-23T07:08:23.590Z,54.10
2022-12-23T07:10:52.585Z,55.50
2022-12-23T07:13:21.527Z,54.50
2022-12-23T07:15:50.601Z,53.70
2022-12-23T07:18:19.559Z,55.00
2022-12-23T07:20:50.908Z,53.90
2022-12-23T07:23:20.357Z,54.30
2022-12-23T07:25:49.321Z,54.00
2022-12-23T07:28:18.505Z,54.50
2022-12-23T07:30:47.628Z,54.20
2022-12-23T07:33:17.030Z,54.40
2022-12-23T07:38:28.433Z,54.60
2022-12-23T07:40:57.469Z,54.70
2022-12-23T07:43:26.468Z,54.60
2022-12-23T07:45:59.953Z,54.50
2022-12-23T07:48:29.518Z,54.60
2022-12-23T07:51:05.682Z,54.30
2022-12-23T07:53:34.690Z,54.20
2022-12-23T07:56:03.834Z,54.00
2022-12-23T07:58:32.851Z,54.00
2022-12-23T08:01:09.428Z,53.30
2022-12-23T08:03:40.783Z,53.70
2022-12-23T08:06:13.784Z,53.50
2022-12-23T08:08:47.837Z,53.40
2022-12-23T08:11:17.553Z,53.50
2022-12-23T08:13:49.322Z,52.50
2022-12-23T08:16:18.739Z,53.10
2022-12-23T08:18:47.735Z,52.80
2022-12-23T08:21:20.508Z,53.70
2022-12-23T08:23:50.288Z,51.60
2022-12-23T08:26:26.185Z,52.10
2022-12-23T08:28:55.344Z,52.80
2022-12-23T08:31:26.917Z,53.50
2022-12-23T08:34:00.579Z,54.00
2022-12-23T08:36:36.534Z,53.80
2022-12-23T08:39:09.237Z,54.20
2022-12-23T08:41:45.719Z,54.70
2022-12-23T08:44:16.145Z,53.90
2022-12-23T08:46:45.698Z,53.60
2022-12-23T08:49:14.786Z,53.70
2022-12-23T08:51:43.935Z,52.90
2022-12-23T08:54:13.014Z,53.40
2022-12-23T08:56:43.312Z,54.00
2022-12-23T08:59:19.668Z,53.00
2022-12-23T09:01:49.805Z,53.30
2022-12-23T09:04:19.139Z,53.60
2022-12-23T09:06:48.188Z,53.00
2022-12-23T09:09:17.552Z,53.60
2022-12-23T09:11:46.554Z,53.70
2022-12-23T09:14:15.879Z,53.80
2022-12-23T09:16:44.996Z,53.60
2022-12-23T09:19:14.246Z,53.70
2022-12-23T09:21:43.313Z,53.20
2022-12-23T09:24:12.325Z,53.10
2022-12-23T09:26:41.433Z,53.70
2022-12-23T09:29:10.403Z,53.80
2022-12-23T09:34:36.022Z,53.70
2022-12-23T09:37:05.422Z,53.80
2022-12-23T09:39:34.511Z,53.90
2022-12-23T09:42:24.639Z,53.80
2022-12-23T09:45:05.838Z,53.70
2022-12-23T09:47:36.361Z,53.20
2022-12-23T09:50:22.707Z,53.80
2022-12-23T09:52:57.951Z,52.20
2022-12-23T09:55:35.293Z,52.70
2022-12-23T09:58:18.698Z,53.40
2022-12-23T10:01:14.621Z,53.90
2022-12-23T10:04:17.373Z,53.90
2022-12-23T10:06:55.073Z,53.60
2022-12-23T10:09:25.438Z,54.30
2022-12-23T10:11:54.638Z,54.50
2022-12-23T10:14:31.133Z,54.40
2022-12-23T10:17:06.538Z,54.30
2022-12-23T10:19:48.320Z,54.50
2022-12-23T10:22:34.299Z,54.50
2022-12-23T10:25:30.267Z,54.60
2022-12-23T10:27:59.249Z,54.70
2022-12-23T10:30:57.189Z,54.80
2022-12-23T10:33:43.678Z,55.00
2022-12-23T10:36:46.795Z,55.00
2022-12-23T10:39:37.708Z,54.70
2022-12-23T10:42:34.203Z,55.00
2022-12-23T10:45:17.689Z,55.00
2022-12-23T10:48:16.078Z,55.30
2022-12-23T10:51:02.544Z,55.40
2022-12-23T10:54:24.829Z,55.50
2022-12-23T10:56:54.823Z,55.30
2022-12-23T10:59:35.872Z,55.60
2022-12-23T11:02:15.023Z,55.80
2022-12-23T11:04:49.975Z,55.90
2022-12-23T11:10:22.209Z,56.20
2022-12-23T11:12:54.046Z,56.20
2022-12-23T11:15:42.862Z,56.30
2022-12-23T11:18:14.624Z,56.30
2022-12-23T11:20:46.301Z,56.50
2022-12-23T11:23:47.737Z,56.70
2022-12-23T11:26:21.558Z,56.50
2022-12-23T11:28:53.768Z,56.80
2022-12-23T11:31:36.721Z,56.80
2022-12-23T11:34:17.762Z,57.00
2022-12-23T11:37:07.744Z,57.00
2022-12-23T11:39:39.119Z,57.00
2022-12-23T11:42:17.442Z,57.10
2022-12-23T11:44:50.218Z,57.10
2022-12-23T11:47:25.411Z,57.20
2022-12-23T11:49:56.868Z,57.30
2022-12-23T11:52:30.072Z,57.20
2022-12-23T11:55:05.289Z,57.30
2022-12-23T11:57:42.028Z,57.40
2022-12-23T12:00:22.285Z,57.50
2022-12-23T12:02:55.511Z,57.50
2022-12-23T12:05:38.695Z,57.60
2022-12-23T12:08:12.574Z,57.70
2022-12-23T12:10:43.564Z,57.70
2022-12-23T12:13:43.184Z,57.90
2022-12-23T12:16:36.443Z,57.90
2022-12-23T12:19:28.319Z,58.00
2022-12-23T12:22:02.372Z,58.00
2022-12-23T12:24:33.445Z,58.00
2022-12-23T12:27:08.721Z,58.20
2022-12-23T12:29:49.916Z,58.30
2022-12-23T12:32:40.043Z,58.30
2022-12-23T12:35:16.058Z,58.50
2022-12-23T12:37:58.376Z,58.50
2022-12-23T12:40:59.431Z,58.60
2022-12-23T12:43:39.460Z,58.80
2022-12-23T12:46:17.497Z,58.80
2022-12-23T12:48:55.461Z,58.90
2022-12-23T12:51:39.495Z,59.00
2022-12-23T12:54:52.319Z,59.10
2022-12-23T12:57:24.019Z,59.30
2022-12-23T13:00:03.650Z,59.40
2022-12-23T13:02:56.343Z,59.40
2022-12-23T13:06:03.108Z,59.40
2022-12-23T13:08:57.373Z,59.60
2022-12-23T13:11:52.172Z,59.70
2022-12-23T13:15:05.858Z,60.00
2022-12-23T13:17:46.916Z,60.30
2022-12-23T13:20:35.158Z,60.00
2022-12-23T13:23:43.550Z,60.20
2022-12-23T13:26:37.031Z,60.90
2022-12-23T13:29:31.709Z,60.40
2022-12-23T13:32:09.587Z,60.70
2022-12-23T13:35:16.943Z,62.00
2022-12-23T13:38:07.543Z,61.30
2022-12-23T13:40:48.878Z,61.10
2022-12-23T13:43:25.305Z,61.10
2022-12-23T13:45:56.248Z,60.90
2022-12-23T13:48:37.707Z,61.10
2022-12-23T13:51:09.707Z,61.20
2022-12-23T13:53:41.777Z,61.20
2022-12-23T13:59:12.688Z,61.30
2022-12-23T14:02:02.429Z,61.10
2022-12-23T14:04:58.083Z,61.30
2022-12-23T14:07:30.221Z,61.10
2022-12-23T14:10:11.754Z,61.30
2022-12-23T14:12:43.691Z,61.10
2022-12-23T14:15:27.880Z,61.50
2022-12-23T14:18:08.638Z,61.60
2022-12-23T14:20:56.431Z,61.60
2022-12-23T14:23:51.626Z,61.70
2022-12-23T14:26:42.087Z,61.70
2022-12-23T14:29:44.710Z,61.80
2022-12-23T14:32:24.968Z,61.70
2022-12-23T14:35:19.969Z,62.00
2022-12-23T14:38:17.178Z,62.20
2022-12-23T14:41:04.863Z,62.00
2022-12-23T14:43:56.891Z,62.20
2022-12-23T14:46:37.999Z,62.20
2022-12-23T14:49:40.155Z,62.60
2022-12-23T14:52:44.309Z,62.90
2022-12-23T14:55:32.342Z,62.80
2022-12-23T14:58:18.864Z,62.50
2022-12-23T15:01:21.334Z,62.60
2022-12-23T15:03:59.293Z,63.00
2022-12-23T15:06:34.574Z,62.90
2022-12-23T15:09:04.182Z,62.90
2022-12-23T15:11:36.230Z,62.80
2022-12-23T15:14:11.954Z,62.90
2022-12-23T15:16:45.854Z,63.00
2022-12-23T15:19:21.157Z,63.30
2022-12-23T15:22:04.022Z,63.30
2022-12-23T15:24:43.707Z,63.10
2022-12-23T15:27:27.406Z,63.00
2022-12-23T15:29:57.338Z,63.40
2022-12-23T15:32:27.953Z,63.60
2022-12-23T15:35:06.788Z,63.50
2022-12-23T15:37:36.499Z,63.40
2022-12-23T15:40:12.641Z,63.60
2022-12-23T15:42:50.106Z,63.80
2022-12-23T15:45:38.833Z,64.60
2022-12-23T15:48:26.561Z,64.00
2022-12-23T15:50:59.455Z,64.00
2022-12-23T15:53:35.812Z,64.00
2022-12-23T15:56:08.646Z,63.80
2022-12-23T15:58:41.652Z,64.10
2022-12-23T16:01:19.161Z,63.70
2022-12-23T16:04:02.228Z,63.80
2022-12-23T16:06:40.077Z,64.60
2022-12-23T16:09:18.307Z,64.50
2022-12-23T16:12:01.568Z,64.10
2022-12-23T16:14:38.264Z,64.30
2022-12-23T16:17:10.305Z,64.40
2022-12-23T16:19:49.854Z,64.30
2022-12-23T16:22:34.764Z,64.20
2022-12-23T16:25:34.527Z,64.80
2022-12-23T16:28:19.162Z,65.10
2022-12-23T16:30:50.657Z,64.90
2022-12-23T16:33:28.776Z,64.50
2022-12-23T16:35:59.046Z,64.50
2022-12-23T16:38:28.715Z,65.00
2022-12-23T16:43:52.320Z,65.40
2022-12-23T16:46:24.804Z,65.20
2022-12-23T16:51:24.501Z,65.90
2022-12-23T16:53:59.032Z,65.50
2022-12-23T16:56:35.388Z,66.40
2022-12-23T16:59:05.140Z,65.40
2022-12-23T17:01:37.817Z,66.20
2022-12-23T17:04:10.738Z,65.30
2022-12-23T17:06:39.764Z,65.90
2022-12-23T17:09:09.953Z,66.50
2022-12-23T17:11:49.218Z,66.40
2022-12-23T17:14:26.860Z,66.20
2022-12-23T17:16:56.139Z,67.40
2022-12-23T17:19:29.388Z,66.80
2022-12-23T17:22:03.532Z,66.60
2022-12-23T17:24:35.126Z,66.90
2022-12-23T17:27:06.689Z,67.60
2022-12-23T17:29:35.659Z,66.90
2022-12-23T17:32:04.848Z,67.20
2022-12-23T17:34:34.531Z,67.30
2022-12-23T17:37:03.654Z,67.50
2022-12-23T17:39:32.754Z,67.70
2022-12-23T17:42:01.779Z,67.40
2022-12-23T17:44:30.775Z,67.80
2022-12-23T17:47:00.519Z,68.00
2022-12-23T17:49:29.580Z,67.80
2022-12-23T17:51:58.790Z,67.90
2022-12-23T17:54:28.615Z,68.00
2022-12-23T17:56:58.768Z,68.20
2022-12-23T17:59:27.844Z,68.40
2022-12-23T18:01:56.960Z,68.50
2022-12-23T18:04:25.972Z,68.30
2022-12-23T18:06:54.921Z,69.50
2022-12-23T18:09:24.410Z,68.60
2022-12-23T18:11:53.460Z,69.00
2022-12-23T18:14:30.381Z,69.40
2022-12-23T18:17:00.113Z,69.70
2022-12-23T18:19:29.288Z,70.90
2022-12-23T18:21:58.600Z,69.50
2022-12-23T18:24:28.285Z,69.60
2022-12-23T18:26:57.289Z,69.40
2022-12-23T18:29:26.346Z,69.00
2022-12-23T18:31:55.610Z,69.50
2022-12-23T18:34:24.611Z,70.10
2022-12-23T18:36:53.707Z,70.70
2022-12-23T18:39:22.839Z,69.70
2022-12-23T18:41:51.907Z,70.20
2022-12-23T18:44:22.071Z,69.90
2022-12-23T18:46:51.566Z,70.30
2022-12-23T18:49:20.878Z,69.70
2022-12-23T18:51:49.984Z,70.40
2022-12-23T18:54:19.034Z,70.30
2022-12-23T18:56:48.802Z,70.60
2022-12-23T18:59:29.573Z,70.90
2022-12-23T19:01:59.990Z,71.20
2022-12-23T19:04:29.642Z,70.70
2022-12-23T19:06:58.952Z,71.20
2022-12-23T19:09:28.143Z,70.60
2022-12-23T19:11:57.121Z,70.80
2022-12-23T19:14:26.137Z,71.80
2022-12-23T19:16:55.251Z,71.40
2022-12-23T19:19:24.238Z,72.00
2022-12-23T19:21:53.289Z,72.00
2022-12-23T19:24:22.307Z,72.10
2022-12-23T19:26:51.324Z,71.90
2022-12-23T19:29:20.301Z,72.10
2022-12-23T19:31:49.319Z,71.30
2022-12-23T19:34:18.359Z,72.00
2022-12-23T19:36:47.453Z,72.30
2022-12-23T19:39:18.068Z,72.20
2022-12-23T19:41:47.653Z,72.50
2022-12-23T19:44:16.909Z,71.90
2022-12-23T19:46:46.022Z,72.60
2022-12-23T19:49:19.800Z,73.00
2022-12-23T19:51:49.029Z,72.70
2022-12-23T19:54:18.668Z,74.90
2022-12-23T19:56:50.735Z,72.90
2022-12-23T19:59:20.449Z,72.80
2022-12-23T20:01:49.772Z,72.30
2022-12-23T20:04:19.076Z,72.50
2022-12-23T20:06:48.039Z,73.00
2022-12-23T20:09:17.023Z,72.80
2022-12-23T20:11:50.304Z,72.80
2022-12-23T20:14:20.480Z,73.20
2022-12-23T20:16:50.457Z,73.10
2022-12-23T20:19:19.998Z,73.00
2022-12-23T20:21:49.246Z,73.30
2022-12-23T20:24:18.282Z,73.40
2022-12-23T20:26:47.290Z,73.50
2022-12-23T20:29:16.634Z,73.30
2022-12-23T20:31:45.742Z,73.30
2022-12-23T20:34:19.211Z,73.50
2022-12-23T20:36:48.283Z,73.30
2022-12-23T20:39:17.470Z,73.70
2022-12-23T20:41:46.520Z,73.50
2022-12-23T20:47:05.535Z,73.70
2022-12-23T20:49:34.847Z,73.80
2022-12-23T20:52:04.415Z,73.30
2022-12-23T20:54:34.104Z,73.50
2022-12-23T20:57:03.965Z,74.70
2022-12-23T20:59:34.164Z,73.50
2022-12-23T21:02:03.676Z,73.80
2022-12-23T21:04:32.764Z,73.90
2022-12-23T21:07:01.807Z,73.90
2022-12-23T21:09:30.874Z,74.00
2022-12-23T21:12:00.160Z,74.00
2022-12-23T21:14:29.324Z,74.00
2022-12-23T21:16:58.355Z,74.10
2022-12-23T21:19:29.155Z,74.20
2022-12-23T21:21:59.050Z,74.30
2022-12-23T21:24:28.069Z,74.30
2022-12-23T21:26:57.415Z,74.60
2022-12-23T21:29:27.128Z,74.50
2022-12-23T21:31:56.456Z,74.40
2022-12-23T21:34:25.669Z,74.50
2022-12-23T21:36:54.728Z,74.50
2022-12-23T21:39:23.784Z,75.00
2022-12-23T21:41:53.808Z,75.00
2022-12-23T21:44:22.867Z,74.90
2022-12-23T21:46:53.097Z,75.20
2022-12-23T21:49:22.438Z,75.30
2022-12-23T21:51:51.663Z,75.30
2022-12-23T21:54:20.804Z,75.30
2022-12-23T21:56:49.837Z,75.30
2022-12-23T21:59:18.835Z,75.30
2022-12-23T22:01:47.917Z,75.30
2022-12-23T22:04:16.943Z,75.50
2022-12-23T22:06:46.813Z,75.40
2022-12-23T22:09:18.975Z,75.30
2022-12-23T22:11:49.117Z,75.20
2022-12-23T22:14:20.389Z,75.30
2022-12-23T22:16:49.436Z,75.70
2022-12-23T22:19:18.654Z,75.40
2022-12-23T22:21:47.764Z,75.30
2022-12-23T22:24:16.993Z,75.50
2022-12-23T22:26:46.020Z,75.40
2022-12-23T22:29:15.132Z,75.30
2022-12-23T22:31:56.025Z,75.60
2022-12-23T22:34:25.229Z,75.30
2022-12-23T22:36:54.271Z,75.60
2022-12-23T22:39:23.825Z,75.60
2022-12-23T22:41:53.894Z,75.60
2022-12-23T22:44:23.161Z,75.60
2022-12-23T22:46:52.296Z,75.60
2022-12-23T22:49:26.242Z,76.00
2022-12-23T22:51:55.393Z,76.10
2022-12-23T22:54:24.363Z,76.00
2022-12-23T22:56:53.367Z,76.20
2022-12-23T22:59:24.754Z,76.20
2022-12-23T23:01:54.870Z,76.00
2022-12-23T23:04:24.210Z,75.90
2022-12-23T23:06:53.296Z,75.90
2022-12-23T23:09:23.464Z,76.00
2022-12-23T23:11:53.180Z,75.90
2022-12-23T23:14:22.665Z,76.20
2022-12-23T23:19:40.448Z,76.30
2022-12-23T23:22:09.742Z,76.40
2022-12-23T23:24:38.840Z,76.40
2022-12-23T23:27:08.047Z,76.50
2022-12-23T23:29:37.128Z,76.50
2022-12-23T23:32:07.327Z,76.60
2022-12-23T23:34:38.063Z,76.60
2022-12-23T23:37:12.899Z,76.70
2022-12-23T23:39:45.049Z,76.80
2022-12-23T23:42:14.288Z,76.90
2022-12-23T23:44:43.373Z,77.20
2022-12-23T23:47:13.597Z,77.20
2022-12-23T23:49:42.622Z,77.30
2022-12-23T23:52:11.594Z,77.30
2022-12-23T23:54:40.631Z,77.40
2022-12-23T23:57:09.737Z,78.50
2022-12-23T23:59:38.747Z,78.00
